sensor_id;sensor_type;location;lat;lon;timestamp;temperature;humidity
51878;SHT31;37911;51.526;11.536;2022-09-20T00:01:37;10.78;81.59
51878;SHT31;37911;51.526;11.536;2022-09-20T00:04:40;10.77;81.71
51878;SHT31;37911;51.526;11.536;2022-09-20T00:07:44;10.72;81.77
51878;SHT31;37911;51.526;11.536;2022-09-20T00:10:51;10.67;81.74
51878;SHT31;37911;51.526;11.536;2022-09-20T00:13:56;10.60;81.87
51878;SHT31;37911;51.526;11.536;2022-09-20T00:17:00;10.50;82.19
51878;SHT31;37911;51.526;11.536;2022-09-20T00:20:04;10.41;82.33
51878;SHT31;37911;51.526;11.536;2022-09-20T00:23:08;10.29;82.71
51878;SHT31;37911;51.526;11.536;2022-09-20T00:26:14;10.23;82.83
51878;SHT31;37911;51.526;11.536;2022-09-20T00:29:18;10.10;83.28
51878;SHT31;37911;51.526;11.536;2022-09-20T00:32:22;10.04;83.46
51878;SHT31;37911;51.526;11.536;2022-09-20T00:35:26;10.06;83.37
51878;SHT31;37911;51.526;11.536;2022-09-20T00:38:27;10.07;83.13
51878;SHT31;37911;51.526;11.536;2022-09-20T00:41:33;9.99;83.34
51878;SHT31;37911;51.526;11.536;2022-09-20T00:44:48;9.96;83.20
51878;SHT31;37911;51.526;11.536;2022-09-20T00:47:56;9.89;83.50
51878;SHT31;37911;51.526;11.536;2022-09-20T00:51:05;9.83;83.35
51878;SHT31;37911;51.526;11.536;2022-09-20T00:54:13;9.85;83.41
51878;SHT31;37911;51.526;11.536;2022-09-20T00:57:21;9.75;83.85
51878;SHT31;37911;51.526;11.536;2022-09-20T01:00:26;9.68;83.85
51878;SHT31;37911;51.526;11.536;2022-09-20T01:03:31;9.66;84.16
51878;SHT31;37911;51.526;11.536;2022-09-20T01:06:36;9.62;84.09
51878;SHT31;37911;51.526;11.536;2022-09-20T01:09:39;9.56;84.10
51878;SHT31;37911;51.526;11.536;2022-09-20T01:12:46;9.58;83.86
51878;SHT31;37911;51.526;11.536;2022-09-20T01:15:51;9.45;84.11
51878;SHT31;37911;51.526;11.536;2022-09-20T01:18:56;9.45;84.07
51878;SHT31;37911;51.526;11.536;2022-09-20T01:22:03;9.36;84.34
51878;SHT31;37911;51.526;11.536;2022-09-20T01:25:10;9.32;84.36
51878;SHT31;37911;51.526;11.536;2022-09-20T01:28:20;9.24;84.50
51878;SHT31;37911;51.526;11.536;2022-09-20T01:31:25;9.24;84.45
51878;SHT31;37911;51.526;11.536;2022-09-20T01:34:33;9.12;84.60
51878;SHT31;37911;51.526;11.536;2022-09-20T01:37:46;9.12;84.81
51878;SHT31;37911;51.526;11.536;2022-09-20T01:41:00;9.15;84.68
51878;SHT31;37911;51.526;11.536;2022-09-20T01:44:12;9.08;84.57
51878;SHT31;37911;51.526;11.536;2022-09-20T01:47:24;9.04;84.93
51878;SHT31;37911;51.526;11.536;2022-09-20T01:50:34;9.04;84.94
51878;SHT31;37911;51.526;11.536;2022-09-20T01:53:55;8.97;84.97
51878;SHT31;37911;51.526;11.536;2022-09-20T02:00:51;8.98;84.75
51878;SHT31;37911;51.526;11.536;2022-09-20T02:04:12;9.00;84.74
51878;SHT31;37911;51.526;11.536;2022-09-20T02:07:36;8.94;84.96
51878;SHT31;37911;51.526;11.536;2022-09-20T02:11:08;8.92;84.68
51878;SHT31;37911;51.526;11.536;2022-09-20T02:14:29;8.92;84.62
51878;SHT31;37911;51.526;11.536;2022-09-20T02:17:45;8.92;84.47
51878;SHT31;37911;51.526;11.536;2022-09-20T02:20:54;8.83;84.66
51878;SHT31;37911;51.526;11.536;2022-09-20T02:24:05;8.83;84.57
51878;SHT31;37911;51.526;11.536;2022-09-20T02:27:22;8.73;84.85
51878;SHT31;37911;51.526;11.536;2022-09-20T02:30:37;8.73;84.79
51878;SHT31;37911;51.526;11.536;2022-09-20T02:34:07;8.70;85.01
51878;SHT31;37911;51.526;11.536;2022-09-20T02:37:44;8.71;84.76
51878;SHT31;37911;51.526;11.536;2022-09-20T02:41:07;8.61;85.03
51878;SHT31;37911;51.526;11.536;2022-09-20T02:44:22;8.68;84.51
51878;SHT31;37911;51.526;11.536;2022-09-20T02:47:32;8.66;84.55
51878;SHT31;37911;51.526;11.536;2022-09-20T02:50:44;8.61;84.64
51878;SHT31;37911;51.526;11.536;2022-09-20T02:53:54;8.54;85.10
51878;SHT31;37911;51.526;11.536;2022-09-20T02:57:11;8.49;85.48
51878;SHT31;37911;51.526;11.536;2022-09-20T03:00:20;8.50;85.79
51878;SHT31;37911;51.526;11.536;2022-09-20T03:03:36;8.56;85.48
51878;SHT31;37911;51.526;11.536;2022-09-20T03:06:50;8.59;85.37
51878;SHT31;37911;51.526;11.536;2022-09-20T03:10:10;8.54;85.33
51878;SHT31;37911;51.526;11.536;2022-09-20T03:13:22;8.60;85.19
51878;SHT31;37911;51.526;11.536;2022-09-20T03:16:33;8.49;85.34
51878;SHT31;37911;51.526;11.536;2022-09-20T03:19:49;8.49;85.32
51878;SHT31;37911;51.526;11.536;2022-09-20T03:23:06;8.43;85.29
51878;SHT31;37911;51.526;11.536;2022-09-20T03:26:28;8.44;85.32
51878;SHT31;37911;51.526;11.536;2022-09-20T03:29:44;8.40;85.22
51878;SHT31;37911;51.526;11.536;2022-09-20T03:33:00;8.36;85.36
51878;SHT31;37911;51.526;11.536;2022-09-20T03:36:16;8.32;85.48
51878;SHT31;37911;51.526;11.536;2022-09-20T03:43:15;8.26;85.87
51878;SHT31;37911;51.526;11.536;2022-09-20T03:46:25;8.32;85.88
51878;SHT31;37911;51.526;11.536;2022-09-20T03:49:54;8.34;85.66
51878;SHT31;37911;51.526;11.536;2022-09-20T03:56:59;8.34;85.81
51878;SHT31;37911;51.526;11.536;2022-09-20T04:00:18;8.33;85.71
51878;SHT31;37911;51.526;11.536;2022-09-20T04:03:29;8.28;85.71
51878;SHT31;37911;51.526;11.536;2022-09-20T04:06:50;8.28;85.46
51878;SHT31;37911;51.526;11.536;2022-09-20T04:10:12;8.33;85.51
51878;SHT31;37911;51.526;11.536;2022-09-20T04:13:27;8.32;85.30
51878;SHT31;37911;51.526;11.536;2022-09-20T04:16:42;8.23;85.57
51878;SHT31;37911;51.526;11.536;2022-09-20T04:19:51;8.21;85.70
51878;SHT31;37911;51.526;11.536;2022-09-20T04:23:07;8.17;85.82
51878;SHT31;37911;51.526;11.536;2022-09-20T04:26:21;8.13;86.04
51878;SHT31;37911;51.526;11.536;2022-09-20T04:29:35;8.16;85.74
51878;SHT31;37911;51.526;11.536;2022-09-20T04:32:48;8.14;85.97
51878;SHT31;37911;51.526;11.536;2022-09-20T04:36:00;8.16;85.97
51878;SHT31;37911;51.526;11.536;2022-09-20T04:39:24;8.16;85.89
51878;SHT31;37911;51.526;11.536;2022-09-20T04:46:32;8.14;85.99
51878;SHT31;37911;51.526;11.536;2022-09-20T04:49:58;8.19;85.51
51878;SHT31;37911;51.526;11.536;2022-09-20T04:53:50;8.07;85.79
51878;SHT31;37911;51.526;11.536;2022-09-20T04:57:16;8.03;85.81
51878;SHT31;37911;51.526;11.536;2022-09-20T05:00:27;8.03;85.85
51878;SHT31;37911;51.526;11.536;2022-09-20T05:11:26;7.91;86.32
51878;SHT31;37911;51.526;11.536;2022-09-20T05:15:10;8.03;86.25
51878;SHT31;37911;51.526;11.536;2022-09-20T05:18:40;8.06;86.13
51878;SHT31;37911;51.526;11.536;2022-09-20T05:22:08;8.06;86.07
51878;SHT31;37911;51.526;11.536;2022-09-20T05:25:29;8.10;85.94
51878;SHT31;37911;51.526;11.536;2022-09-20T05:28:48;8.07;85.46
51878;SHT31;37911;51.526;11.536;2022-09-20T05:32:00;8.03;85.93
51878;SHT31;37911;51.526;11.536;2022-09-20T05:35:14;7.95;86.04
51878;SHT31;37911;51.526;11.536;2022-09-20T05:38:27;8.05;85.95
51878;SHT31;37911;51.526;11.536;2022-09-20T05:41:39;8.06;85.99
51878;SHT31;37911;51.526;11.536;2022-09-20T05:44:55;8.14;86.01
51878;SHT31;37911;51.526;11.536;2022-09-20T05:48:04;8.25;86.09
51878;SHT31;37911;51.526;11.536;2022-09-20T05:51:24;8.30;85.87
51878;SHT31;37911;51.526;11.536;2022-09-20T05:54:52;8.49;85.77
51878;SHT31;37911;51.526;11.536;2022-09-20T05:58:15;8.53;86.29
51878;SHT31;37911;51.526;11.536;2022-09-20T06:01:31;8.60;86.34
51878;SHT31;37911;51.526;11.536;2022-09-20T06:04:42;8.68;86.91
51878;SHT31;37911;51.526;11.536;2022-09-20T06:07:59;8.81;87.01
51878;SHT31;37911;51.526;11.536;2022-09-20T06:11:24;8.87;86.62
51878;SHT31;37911;51.526;11.536;2022-09-20T06:14:39;9.12;86.36
51878;SHT31;37911;51.526;11.536;2022-09-20T06:17:58;9.31;85.80
51878;SHT31;37911;51.526;11.536;2022-09-20T06:21:09;9.53;85.42
51878;SHT31;37911;51.526;11.536;2022-09-20T06:24:25;9.68;84.10
51878;SHT31;37911;51.526;11.536;2022-09-20T06:27:35;9.78;84.35
51878;SHT31;37911;51.526;11.536;2022-09-20T06:30:42;9.99;83.18
51878;SHT31;37911;51.526;11.536;2022-09-20T06:33:53;10.23;82.78
51878;SHT31;37911;51.526;11.536;2022-09-20T06:37:07;10.69;81.71
51878;SHT31;37911;51.526;11.536;2022-09-20T06:40:33;11.04;80.76
51878;SHT31;37911;51.526;11.536;2022-09-20T06:43:51;11.33;80.00
51878;SHT31;37911;51.526;11.536;2022-09-20T06:46:55;11.59;79.04
51878;SHT31;37911;51.526;11.536;2022-09-20T06:50:02;11.87;78.06
51878;SHT31;37911;51.526;11.536;2022-09-20T06:53:06;11.83;79.09
51878;SHT31;37911;51.526;11.536;2022-09-20T06:56:14;12.11;78.70
51878;SHT31;37911;51.526;11.536;2022-09-20T06:59:18;12.23;78.33
51878;SHT31;37911;51.526;11.536;2022-09-20T07:02:22;12.55;76.26
51878;SHT31;37911;51.526;11.536;2022-09-20T07:05:29;12.46;77.19
51878;SHT31;37911;51.526;11.536;2022-09-20T07:08:32;12.72;76.94
51878;SHT31;37911;51.526;11.536;2022-09-20T07:11:35;12.74;76.16
51878;SHT31;37911;51.526;11.536;2022-09-20T07:14:39;12.75;75.85
51878;SHT31;37911;51.526;11.536;2022-09-20T07:17:44;12.76;75.86
51878;SHT31;37911;51.526;11.536;2022-09-20T07:20:51;12.71;76.03
51878;SHT31;37911;51.526;11.536;2022-09-20T07:23:55;12.61;76.97
51878;SHT31;37911;51.526;11.536;2022-09-20T07:27:00;12.61;75.55
51878;SHT31;37911;51.526;11.536;2022-09-20T07:30:05;12.38;76.98
51878;SHT31;37911;51.526;11.536;2022-09-20T07:33:09;12.33;77.76
51878;SHT31;37911;51.526;11.536;2022-09-20T07:36:19;12.30;76.96
51878;SHT31;37911;51.526;11.536;2022-09-20T07:39:23;12.27;77.01
51878;SHT31;37911;51.526;11.536;2022-09-20T07:42:28;12.30;77.02
51878;SHT31;37911;51.526;11.536;2022-09-20T07:45:31;12.25;76.59
51878;SHT31;37911;51.526;11.536;2022-09-20T07:48:38;12.24;77.52
51878;SHT31;37911;51.526;11.536;2022-09-20T07:51:44;12.11;77.57
51878;SHT31;37911;51.526;11.536;2022-09-20T07:54:48;12.05;77.68
51878;SHT31;37911;51.526;11.536;2022-09-20T07:57:51;12.05;77.45
51878;SHT31;37911;51.526;11.536;2022-09-20T08:00:58;12.13;77.93
51878;SHT31;37911;51.526;11.536;2022-09-20T08:04:03;12.10;77.07
51878;SHT31;37911;51.526;11.536;2022-09-20T08:07:09;12.18;76.88
51878;SHT31;37911;51.526;11.536;2022-09-20T08:10:13;12.42;77.20
51878;SHT31;37911;51.526;11.536;2022-09-20T08:13:16;12.74;75.85
51878;SHT31;37911;51.526;11.536;2022-09-20T08:16:19;13.12;75.67
51878;SHT31;37911;51.526;11.536;2022-09-20T08:19:23;13.27;73.83
51878;SHT31;37911;51.526;11.536;2022-09-20T08:22:29;13.37;74.00
51878;SHT31;37911;51.526;11.536;2022-09-20T08:25:34;13.26;74.64
51878;SHT31;37911;51.526;11.536;2022-09-20T08:28:39;13.18;74.36
51878;SHT31;37911;51.526;11.536;2022-09-20T08:31:43;13.16;73.24
51878;SHT31;37911;51.526;11.536;2022-09-20T08:34:47;13.23;74.24
51878;SHT31;37911;51.526;11.536;2022-09-20T08:37:55;13.27;73.41
51878;SHT31;37911;51.526;11.536;2022-09-20T08:41:03;13.35;74.47
51878;SHT31;37911;51.526;11.536;2022-09-20T08:44:13;13.40;73.84
51878;SHT31;37911;51.526;11.536;2022-09-20T08:47:20;13.39;72.47
51878;SHT31;37911;51.526;11.536;2022-09-20T08:50:24;13.37;71.39
51878;SHT31;37911;51.526;11.536;2022-09-20T08:53:31;13.35;71.62
51878;SHT31;37911;51.526;11.536;2022-09-20T08:56:35;13.43;72.69
51878;SHT31;37911;51.526;11.536;2022-09-20T08:59:39;13.56;72.26
51878;SHT31;37911;51.526;11.536;2022-09-20T09:02:42;13.78;69.86
51878;SHT31;37911;51.526;11.536;2022-09-20T09:05:48;13.85;69.28
51878;SHT31;37911;51.526;11.536;2022-09-20T09:09:20;14.07;70.40
51878;SHT31;37911;51.526;11.536;2022-09-20T09:12:43;14.17;69.88
51878;SHT31;37911;51.526;11.536;2022-09-20T09:15:58;14.24;69.37
51878;SHT31;37911;51.526;11.536;2022-09-20T09:19:28;14.26;68.27
51878;SHT31;37911;51.526;11.536;2022-09-20T09:22:42;14.34;68.63
51878;SHT31;37911;51.526;11.536;2022-09-20T09:26:03;14.42;66.70
51878;SHT31;37911;51.526;11.536;2022-09-20T09:29:22;14.38;68.17
51878;SHT31;37911;51.526;11.536;2022-09-20T09:32:31;14.44;69.50
51878;SHT31;37911;51.526;11.536;2022-09-20T09:35:42;14.45;68.73
51878;SHT31;37911;51.526;11.536;2022-09-20T09:38:46;14.42;68.81
51878;SHT31;37911;51.526;11.536;2022-09-20T09:42:25;14.42;67.55
51878;SHT31;37911;51.526;11.536;2022-09-20T09:45:41;14.34;68.78
51878;SHT31;37911;51.526;11.536;2022-09-20T09:48:46;14.26;69.05
51878;SHT31;37911;51.526;11.536;2022-09-20T09:52:10;14.22;69.44
51878;SHT31;37911;51.526;11.536;2022-09-20T09:55:33;14.15;69.01
51878;SHT31;37911;51.526;11.536;2022-09-20T09:59:01;14.24;66.97
51878;SHT31;37911;51.526;11.536;2022-09-20T10:05:55;16.22;62.57
51878;SHT31;37911;51.526;11.536;2022-09-20T10:09:20;16.57;60.69
51878;SHT31;37911;51.526;11.536;2022-09-20T10:12:52;16.11;60.91
51878;SHT31;37911;51.526;11.536;2022-09-20T10:16:07;16.29;61.67
51878;SHT31;37911;51.526;11.536;2022-09-20T10:19:23;16.02;61.78
51878;SHT31;37911;51.526;11.536;2022-09-20T10:23:13;15.75;61.17
51878;SHT31;37911;51.526;11.536;2022-09-20T10:26:53;15.95;61.32
51878;SHT31;37911;51.526;11.536;2022-09-20T10:30:09;15.91;62.13
51878;SHT31;37911;51.526;11.536;2022-09-20T10:33:24;16.18;62.45
51878;SHT31;37911;51.526;11.536;2022-09-20T10:36:33;16.06;60.84
51878;SHT31;37911;51.526;11.536;2022-09-20T10:39:47;16.11;61.56
51878;SHT31;37911;51.526;11.536;2022-09-20T10:43:04;16.25;61.95
51878;SHT31;37911;51.526;11.536;2022-09-20T10:46:20;16.52;61.27
51878;SHT31;37911;51.526;11.536;2022-09-20T10:49:39;17.08;59.45
51878;SHT31;37911;51.526;11.536;2022-09-20T10:52:54;17.67;57.82
51878;SHT31;37911;51.526;11.536;2022-09-20T10:56:15;18.08;56.65
51878;SHT31;37911;51.526;11.536;2022-09-20T10:59:42;18.40;55.40
51878;SHT31;37911;51.526;11.536;2022-09-20T11:03:10;18.73;54.05
51878;SHT31;37911;51.526;11.536;2022-09-20T11:06:36;19.03;53.16
51878;SHT31;37911;51.526;11.536;2022-09-20T11:09:51;19.24;52.16
51878;SHT31;37911;51.526;11.536;2022-09-20T11:13:17;19.32;51.51
51878;SHT31;37911;51.526;11.536;2022-09-20T11:16:28;19.49;51.67
51878;SHT31;37911;51.526;11.536;2022-09-20T11:19:45;19.79;51.62
51878;SHT31;37911;51.526;11.536;2022-09-20T11:23:00;19.65;49.62
51878;SHT31;37911;51.526;11.536;2022-09-20T11:26:09;19.65;49.08
51878;SHT31;37911;51.526;11.536;2022-09-20T11:29:19;19.59;48.96
51878;SHT31;37911;51.526;11.536;2022-09-20T11:32:29;20.05;49.02
51878;SHT31;37911;51.526;11.536;2022-09-20T11:35:39;20.06;48.44
51878;SHT31;37911;51.526;11.536;2022-09-20T11:38:54;20.23;49.52
51878;SHT31;37911;51.526;11.536;2022-09-20T11:42:19;20.40;47.11
51878;SHT31;37911;51.526;11.536;2022-09-20T11:45:39;19.90;48.63
51878;SHT31;37911;51.526;11.536;2022-09-20T11:48:48;20.09;49.79
51878;SHT31;37911;51.526;11.536;2022-09-20T11:52:19;20.08;47.95
51878;SHT31;37911;51.526;11.536;2022-09-20T11:55:38;19.44;50.73
51878;SHT31;37911;51.526;11.536;2022-09-20T11:58:46;18.93;48.91
51878;SHT31;37911;51.526;11.536;2022-09-20T12:01:54;18.34;50.65
51878;SHT31;37911;51.526;11.536;2022-09-20T12:04:59;18.01;51.24
51878;SHT31;37911;51.526;11.536;2022-09-20T12:08:06;18.21;50.48
51878;SHT31;37911;51.526;11.536;2022-09-20T12:11:13;18.52;49.89
51878;SHT31;37911;51.526;11.536;2022-09-20T12:14:20;18.78;49.72
51878;SHT31;37911;51.526;11.536;2022-09-20T12:21:08;19.01;48.27
51878;SHT31;37911;51.526;11.536;2022-09-20T12:24:19;19.22;49.51
51878;SHT31;37911;51.526;11.536;2022-09-20T12:27:57;19.27;48.46
51878;SHT31;37911;51.526;11.536;2022-09-20T12:34:38;19.34;48.84
51878;SHT31;37911;51.526;11.536;2022-09-20T12:37:43;19.17;48.78
51878;SHT31;37911;51.526;11.536;2022-09-20T12:40:58;18.96;48.66
51878;SHT31;37911;51.526;11.536;2022-09-20T12:44:22;18.76;45.81
51878;SHT31;37911;51.526;11.536;2022-09-20T12:47:28;19.24;46.71
51878;SHT31;37911;51.526;11.536;2022-09-20T12:50:32;19.44;45.34
51878;SHT31;37911;51.526;11.536;2022-09-20T12:54:00;19.42;45.50
51878;SHT31;37911;51.526;11.536;2022-09-20T12:57:16;19.57;44.73
51878;SHT31;37911;51.526;11.536;2022-09-20T13:00:34;19.79;45.67
51878;SHT31;37911;51.526;11.536;2022-09-20T13:03:41;19.78;45.36
51878;SHT31;37911;51.526;11.536;2022-09-20T13:06:47;19.68;45.90
51878;SHT31;37911;51.526;11.536;2022-09-20T13:09:50;19.36;46.39
51878;SHT31;37911;51.526;11.536;2022-09-20T13:13:15;19.15;47.41
51878;SHT31;37911;51.526;11.536;2022-09-20T13:16:31;19.08;47.75
51878;SHT31;37911;51.526;11.536;2022-09-20T13:19:41;18.87;48.23
51878;SHT31;37911;51.526;11.536;2022-09-20T13:22:52;19.11;48.37
51878;SHT31;37911;51.526;11.536;2022-09-20T13:25:56;19.32;46.43
51878;SHT31;37911;51.526;11.536;2022-09-20T13:29:02;19.45;43.50
51878;SHT31;37911;51.526;11.536;2022-09-20T13:32:22;19.41;44.92
51878;SHT31;37911;51.526;11.536;2022-09-20T13:35:30;19.75;44.42
51878;SHT31;37911;51.526;11.536;2022-09-20T13:38:36;19.62;46.06
51878;SHT31;37911;51.526;11.536;2022-09-20T13:41:41;19.55;45.73
51878;SHT31;37911;51.526;11.536;2022-09-20T13:44:46;19.19;46.17
51878;SHT31;37911;51.526;11.536;2022-09-20T13:47:53;19.00;45.80
51878;SHT31;37911;51.526;11.536;2022-09-20T13:50:58;18.54;45.50
51878;SHT31;37911;51.526;11.536;2022-09-20T13:57:33;19.08;44.94
51878;SHT31;37911;51.526;11.536;2022-09-20T14:00:44;19.10;44.91
51878;SHT31;37911;51.526;11.536;2022-09-20T14:03:52;19.18;45.68
51878;SHT31;37911;51.526;11.536;2022-09-20T14:06:58;19.27;45.39
51878;SHT31;37911;51.526;11.536;2022-09-20T14:10:05;19.42;45.98
51878;SHT31;37911;51.526;11.536;2022-09-20T14:13:30;19.44;44.73
51878;SHT31;37911;51.526;11.536;2022-09-20T14:16:41;19.62;44.55
51878;SHT31;37911;51.526;11.536;2022-09-20T14:19:52;19.55;44.71
51878;SHT31;37911;51.526;11.536;2022-09-20T14:22:57;19.72;43.61
51878;SHT31;37911;51.526;11.536;2022-09-20T14:26:20;19.59;42.79
51878;SHT31;37911;51.526;11.536;2022-09-20T14:29:28;19.62;41.98
51878;SHT31;37911;51.526;11.536;2022-09-20T14:32:40;19.62;41.08
51878;SHT31;37911;51.526;11.536;2022-09-20T14:35:51;19.62;42.04
51878;SHT31;37911;51.526;11.536;2022-09-20T14:38:56;19.62;43.21
51878;SHT31;37911;51.526;11.536;2022-09-20T14:42:02;19.44;43.83
51878;SHT31;37911;51.526;11.536;2022-09-20T14:45:07;19.12;43.61
51878;SHT31;37911;51.526;11.536;2022-09-20T14:48:34;19.00;43.54
51878;SHT31;37911;51.526;11.536;2022-09-20T14:51:42;18.68;43.90
51878;SHT31;37911;51.526;11.536;2022-09-20T14:54:57;18.74;44.21
51878;SHT31;37911;51.526;11.536;2022-09-20T14:58:03;18.56;43.39
51878;SHT31;37911;51.526;11.536;2022-09-20T15:01:19;18.13;43.17
51878;SHT31;37911;51.526;11.536;2022-09-20T15:04:25;17.98;41.83
51878;SHT31;37911;51.526;11.536;2022-09-20T15:07:35;17.82;43.31
51878;SHT31;37911;51.526;11.536;2022-09-20T15:10:45;17.81;44.37
51878;SHT31;37911;51.526;11.536;2022-09-20T15:13:52;17.68;45.24
51878;SHT31;37911;51.526;11.536;2022-09-20T15:17:02;17.58;45.21
51878;SHT31;37911;51.526;11.536;2022-09-20T15:20:18;17.31;45.70
51878;SHT31;37911;51.526;11.536;2022-09-20T15:23:47;17.20;46.12
51878;SHT31;37911;51.526;11.536;2022-09-20T15:27:44;17.11;45.74
51878;SHT31;37911;51.526;11.536;2022-09-20T15:31:05;16.93;46.56
51878;SHT31;37911;51.526;11.536;2022-09-20T15:35:00;16.96;46.56
51878;SHT31;37911;51.526;11.536;2022-09-20T15:38:46;16.83;47.53
51878;SHT31;37911;51.526;11.536;2022-09-20T15:42:28;16.70;47.77
51878;SHT31;37911;51.526;11.536;2022-09-20T15:46:30;16.55;48.59
51878;SHT31;37911;51.526;11.536;2022-09-20T15:50:02;16.29;49.50
51878;SHT31;37911;51.526;11.536;2022-09-20T15:53:32;16.36;49.92
51878;SHT31;37911;51.526;11.536;2022-09-20T15:57:22;16.29;49.69
51878;SHT31;37911;51.526;11.536;2022-09-20T16:00:52;16.23;49.72
51878;SHT31;37911;51.526;11.536;2022-09-20T16:04:33;16.11;48.66
51878;SHT31;37911;51.526;11.536;2022-09-20T16:11:39;15.84;49.71
51878;SHT31;37911;51.526;11.536;2022-09-20T16:19:05;16.66;48.36
51878;SHT31;37911;51.526;11.536;2022-09-20T16:27:03;16.41;48.07
51878;SHT31;37911;51.526;11.536;2022-09-20T16:31:05;16.22;48.68
51878;SHT31;37911;51.526;11.536;2022-09-20T16:43:00;17.04;47.32
51878;SHT31;37911;51.526;11.536;2022-09-20T16:46:20;17.91;45.04
51878;SHT31;37911;51.526;11.536;2022-09-20T16:49:52;18.39;44.31
51878;SHT31;37911;51.526;11.536;2022-09-20T16:52:55;19.31;40.62
51878;SHT31;37911;51.526;11.536;2022-09-20T16:55:59;19.15;41.34
51878;SHT31;37911;51.526;11.536;2022-09-20T16:59:08;18.71;43.11
51878;SHT31;37911;51.526;11.536;2022-09-20T17:02:13;18.78;43.41
51878;SHT31;37911;51.526;11.536;2022-09-20T17:05:17;18.32;43.79
51878;SHT31;37911;51.526;11.536;2022-09-20T17:08:20;18.34;44.98
51878;SHT31;37911;51.526;11.536;2022-09-20T17:11:25;17.78;45.64
51878;SHT31;37911;51.526;11.536;2022-09-20T17:14:31;17.71;46.56
51878;SHT31;37911;51.526;11.536;2022-09-20T17:17:34;17.52;46.84
51878;SHT31;37911;51.526;11.536;2022-09-20T17:20:38;17.23;47.89
51878;SHT31;37911;51.526;11.536;2022-09-20T17:23:43;17.20;48.02
51878;SHT31;37911;51.526;11.536;2022-09-20T17:26:48;16.94;48.51
51878;SHT31;37911;51.526;11.536;2022-09-20T17:29:55;16.99;47.95
51878;SHT31;37911;51.526;11.536;2022-09-20T17:32:58;16.73;48.02
51878;SHT31;37911;51.526;11.536;2022-09-20T17:36:03;16.05;49.92
51878;SHT31;37911;51.526;11.536;2022-09-20T17:39:06;15.68;50.47
51878;SHT31;37911;51.526;11.536;2022-09-20T17:42:11;15.29;52.33
51878;SHT31;37911;51.526;11.536;2022-09-20T17:45:17;14.75;53.52
51878;SHT31;37911;51.526;11.536;2022-09-20T17:48:20;14.58;54.34
51878;SHT31;37911;51.526;11.536;2022-09-20T17:51:27;14.34;55.46
51878;SHT31;37911;51.526;11.536;2022-09-20T17:54:30;14.05;56.31
51878;SHT31;37911;51.526;11.536;2022-09-20T17:57:33;13.81;57.99
51878;SHT31;37911;51.526;11.536;2022-09-20T18:00:39;13.51;59.74
51878;SHT31;37911;51.526;11.536;2022-09-20T18:03:44;13.33;60.40
51878;SHT31;37911;51.526;11.536;2022-09-20T18:06:49;13.29;60.99
51878;SHT31;37911;51.526;11.536;2022-09-20T18:09:52;13.23;61.19
51878;SHT31;37911;51.526;11.536;2022-09-20T18:12:56;12.99;61.79
51878;SHT31;37911;51.526;11.536;2022-09-20T18:16:02;12.84;62.47
51878;SHT31;37911;51.526;11.536;2022-09-20T18:19:06;12.72;62.92
51878;SHT31;37911;51.526;11.536;2022-09-20T18:22:10;12.55;63.54
51878;SHT31;37911;51.526;11.536;2022-09-20T18:25:13;12.45;63.65
51878;SHT31;37911;51.526;11.536;2022-09-20T18:28:17;12.35;64.05
51878;SHT31;37911;51.526;11.536;2022-09-20T18:31:24;12.11;64.79
51878;SHT31;37911;51.526;11.536;2022-09-20T18:34:29;12.04;64.86
51878;SHT31;37911;51.526;11.536;2022-09-20T18:37:33;11.94;64.88
51878;SHT31;37911;51.526;11.536;2022-09-20T18:40:37;11.73;65.91
51878;SHT31;37911;51.526;11.536;2022-09-20T18:43:41;11.62;66.68
51878;SHT31;37911;51.526;11.536;2022-09-20T18:46:50;11.49;67.75
51878;SHT31;37911;51.526;11.536;2022-09-20T18:49:54;11.38;67.87
51878;SHT31;37911;51.526;11.536;2022-09-20T18:52:58;11.33;67.93
51878;SHT31;37911;51.526;11.536;2022-09-20T18:56:06;11.33;68.23
51878;SHT31;37911;51.526;11.536;2022-09-20T18:59:13;11.35;68.37
51878;SHT31;37911;51.526;11.536;2022-09-20T19:02:49;11.19;68.56
51878;SHT31;37911;51.526;11.536;2022-09-20T19:06:00;10.94;69.75
51878;SHT31;37911;51.526;11.536;2022-09-20T19:09:10;10.94;69.97
51878;SHT31;37911;51.526;11.536;2022-09-20T19:12:20;10.81;70.29
51878;SHT31;37911;51.526;11.536;2022-09-20T19:15:37;10.72;70.48
51878;SHT31;37911;51.526;11.536;2022-09-20T19:19:07;10.72;70.67
51878;SHT31;37911;51.526;11.536;2022-09-20T19:22:22;10.61;71.27
51878;SHT31;37911;51.526;11.536;2022-09-20T19:25:31;10.50;71.69
51878;SHT31;37911;51.526;11.536;2022-09-20T19:28:40;10.48;71.84
51878;SHT31;37911;51.526;11.536;2022-09-20T19:31:46;10.45;72.06
51878;SHT31;37911;51.526;11.536;2022-09-20T19:34:54;10.41;72.24
51878;SHT31;37911;51.526;11.536;2022-09-20T19:38:05;10.30;72.54
51878;SHT31;37911;51.526;11.536;2022-09-20T19:41:23;10.29;72.62
51878;SHT31;37911;51.526;11.536;2022-09-20T19:44:33;10.32;72.75
51878;SHT31;37911;51.526;11.536;2022-09-20T19:47:45;10.23;73.09
51878;SHT31;37911;51.526;11.536;2022-09-20T19:50:53;10.29;73.48
51878;SHT31;37911;51.526;11.536;2022-09-20T19:53:57;10.30;73.04
51878;SHT31;37911;51.526;11.536;2022-09-20T19:57:01;10.24;73.10
51878;SHT31;37911;51.526;11.536;2022-09-20T20:00:11;10.16;73.13
51878;SHT31;37911;51.526;11.536;2022-09-20T20:03:15;10.06;73.37
51878;SHT31;37911;51.526;11.536;2022-09-20T20:06:25;10.00;73.59
51878;SHT31;37911;51.526;11.536;2022-09-20T20:09:37;9.87;74.16
51878;SHT31;37911;51.526;11.536;2022-09-20T20:12:49;9.78;74.46
51878;SHT31;37911;51.526;11.536;2022-09-20T20:15:59;9.79;74.45
51878;SHT31;37911;51.526;11.536;2022-09-20T20:19:25;9.69;75.01
51878;SHT31;37911;51.526;11.536;2022-09-20T20:22:49;9.58;75.55
51878;SHT31;37911;51.526;11.536;2022-09-20T20:25:59;9.53;75.71
51878;SHT31;37911;51.526;11.536;2022-09-20T20:29:05;9.58;75.75
51878;SHT31;37911;51.526;11.536;2022-09-20T20:32:08;9.55;75.97
51878;SHT31;37911;51.526;11.536;2022-09-20T20:35:12;9.49;76.13
51878;SHT31;37911;51.526;11.536;2022-09-20T20:38:19;9.52;75.90
51878;SHT31;37911;51.526;11.536;2022-09-20T20:41:24;9.46;76.17
51878;SHT31;37911;51.526;11.536;2022-09-20T20:44:29;9.36;76.46
51878;SHT31;37911;51.526;11.536;2022-09-20T20:47:34;9.28;76.66
51878;SHT31;37911;51.526;11.536;2022-09-20T20:50:37;9.22;77.02
51878;SHT31;37911;51.526;11.536;2022-09-20T20:53:45;9.22;76.92
51878;SHT31;37911;51.526;11.536;2022-09-20T20:56:48;9.18;77.01
51878;SHT31;37911;51.526;11.536;2022-09-20T20:59:51;9.17;77.24
51878;SHT31;37911;51.526;11.536;2022-09-20T21:02:56;9.11;77.52